createdAt,value
2023-04-08T00:00:29.715Z,72.39
2023-04-08T00:03:24.659Z,72.24
2023-04-08T00:06:16.806Z,72.16
2023-04-08T00:08:52.388Z,72.21
2023-04-08T00:11:33.256Z,72.10
2023-04-08T00:14:25.448Z,72.17
2023-04-08T00:17:13.810Z,71.86
2023-04-08T00:19:49.541Z,71.81
2023-04-08T00:22:32.984Z,72.02
2023-04-08T00:25:25.506Z,71.93
2023-04-08T00:28:17.961Z,71.93
2023-04-08T00:31:10.102Z,71.70
2023-04-08T00:34:02.219Z,71.67
2023-04-08T00:36:54.200Z,71.51
2023-04-08T00:39:46.136Z,71.20
2023-04-08T00:42:38.115Z,71.15
2023-04-08T00:45:30.469Z,71.00
2023-04-08T00:48:22.624Z,71.12
2023-04-08T00:51:14.719Z,71.31
2023-04-08T00:54:07.825Z,70.82
2023-04-08T00:57:01.223Z,70.90
2023-04-08T00:59:53.273Z,70.56
2023-04-08T01:02:52.668Z,70.35
2023-04-08T01:05:53.658Z,70.58
2023-04-08T01:08:46.662Z,70.57
2023-04-08T01:11:44.628Z,70.56
2023-04-08T01:14:40.074Z,70.46
2023-04-08T01:17:33.431Z,70.39
2023-04-08T01:20:27.887Z,70.64
2023-04-08T01:23:27.030Z,70.85
2023-04-08T01:26:25.613Z,70.58
2023-04-08T01:29:19.763Z,70.14
2023-04-08T01:31:55.504Z,69.92
2023-04-08T01:34:47.959Z,69.71
2023-04-08T01:37:41.609Z,70.17
2023-04-08T01:40:35.981Z,70.16
2023-04-08T01:43:28.827Z,70.33
2023-04-08T01:46:21.784Z,70.67
2023-04-08T01:49:14.294Z,69.98
2023-04-08T01:52:07.768Z,70.20
2023-04-08T01:55:00.553Z,70.08
2023-04-08T01:57:55.296Z,70.31
2023-04-08T02:00:33.876Z,70.34
2023-04-08T02:03:13.519Z,70.32
2023-04-08T02:06:06.205Z,70.30
2023-04-08T02:08:58.725Z,70.35
2023-04-08T02:11:50.685Z,69.84
2023-04-08T02:14:42.820Z,69.77
2023-04-08T02:17:41.085Z,70.13
2023-04-08T02:20:42.205Z,70.06
2023-04-08T02:23:36.600Z,70.11
2023-04-08T02:26:16.074Z,70.07
2023-04-08T02:29:11.210Z,70.06
2023-04-08T02:32:04.902Z,70.26
2023-04-08T02:34:57.687Z,70.68
2023-04-08T02:37:50.389Z,70.89
2023-04-08T02:40:42.890Z,70.69
2023-04-08T02:43:35.223Z,70.62
2023-04-08T02:46:27.138Z,70.61
2023-04-08T02:49:19.153Z,70.59
2023-04-08T02:52:11.181Z,70.80
2023-04-08T02:55:03.258Z,70.69
2023-04-08T02:57:55.594Z,70.90
2023-04-08T03:00:47.797Z,70.61
2023-04-08T03:03:39.887Z,70.73
2023-04-08T03:06:32.792Z,70.74
2023-04-08T03:09:24.727Z,70.55
2023-04-08T03:12:16.761Z,70.71
2023-04-08T03:14:52.006Z,70.84
2023-04-08T03:17:44.046Z,70.53
2023-04-08T03:20:36.140Z,70.43
2023-04-08T03:23:10.876Z,70.65
2023-04-08T03:25:50.255Z,70.73
2023-04-08T03:28:42.267Z,70.70
2023-04-08T03:31:34.999Z,70.62
2023-04-08T03:34:27.134Z,70.98
2023-04-08T03:37:19.163Z,70.99
2023-04-08T03:40:13.395Z,70.85
2023-04-08T03:43:06.619Z,70.82
2023-04-08T03:45:59.461Z,71.02
2023-04-08T03:48:51.566Z,70.96
2023-04-08T03:51:43.702Z,71.10
2023-04-08T03:54:24.550Z,71.13
2023-04-08T03:57:17.143Z,71.04
2023-04-08T04:00:11.277Z,70.98
2023-04-08T04:03:03.545Z,70.94
2023-04-08T04:05:55.660Z,70.95
2023-04-08T04:08:40.674Z,71.01
2023-04-08T04:11:32.695Z,71.11
2023-04-08T04:14:07.551Z,70.86
2023-04-08T04:16:59.575Z,70.96
2023-04-08T04:19:34.103Z,71.07
2023-04-08T04:22:16.682Z,71.17
2023-04-08T04:25:09.977Z,71.12
2023-04-08T04:28:02.797Z,71.05
2023-04-08T04:30:56.374Z,70.80
2023-04-08T04:33:48.591Z,71.07
2023-04-08T04:36:40.823Z,71.08
2023-04-08T04:39:22.634Z,71.01
2023-04-08T04:41:59.972Z,71.20
2023-04-08T04:44:34.526Z,71.04
2023-04-08T04:47:26.611Z,71.12
2023-04-08T04:50:18.635Z,70.95
2023-04-08T04:53:10.592Z,70.87
2023-04-08T04:55:44.734Z,70.96
2023-04-08T04:58:36.774Z,70.73
2023-04-08T05:01:29.547Z,70.64
2023-04-08T05:04:21.565Z,70.70
2023-04-08T05:07:13.576Z,70.82
2023-04-08T05:10:06.907Z,70.63
2023-04-08T05:12:58.880Z,70.59
2023-04-08T05:15:50.950Z,70.63
2023-04-08T05:18:42.944Z,70.54
2023-04-08T05:21:34.919Z,70.63
2023-04-08T05:24:26.928Z,70.43
2023-04-08T05:27:18.899Z,70.28
2023-04-08T05:30:12.814Z,70.59
2023-04-08T05:33:05.046Z,70.53
2023-04-08T05:35:57.160Z,70.59
2023-04-08T05:38:40.611Z,70.46
2023-04-08T05:41:32.743Z,70.72
2023-04-08T05:44:24.727Z,70.79
2023-04-08T05:47:16.771Z,69.99
2023-04-08T05:50:11.234Z,70.18
2023-04-08T05:53:03.239Z,70.45
2023-04-08T05:55:38.591Z,70.90
2023-04-08T05:58:20.451Z,69.84
2023-04-08T06:01:12.364Z,68.32
2023-04-08T06:03:56.364Z,65.87
2023-04-08T06:06:48.614Z,65.14
2023-04-08T06:09:40.571Z,65.75
2023-04-08T06:12:33.069Z,66.04
2023-04-08T06:15:25.400Z,65.45
2023-04-08T06:18:17.540Z,65.15
2023-04-08T06:21:09.681Z,65.50
2023-04-08T06:24:01.833Z,66.30
2023-04-08T06:26:54.144Z,65.58
2023-04-08T06:29:46.157Z,65.89
2023-04-08T06:32:38.716Z,64.99
2023-04-08T06:35:32.290Z,64.36
2023-04-08T06:38:24.687Z,64.37
2023-04-08T06:41:16.725Z,64.78
2023-04-08T06:44:08.719Z,64.72
2023-04-08T06:47:00.906Z,64.17
2023-04-08T06:49:52.971Z,64.94
2023-04-08T06:52:44.945Z,64.43
2023-04-08T06:55:36.930Z,64.91
2023-04-08T06:58:29.804Z,64.62
2023-04-08T07:01:21.842Z,64.43
2023-04-08T07:03:59.484Z,64.44
2023-04-08T07:06:51.635Z,64.31
2023-04-08T07:09:45.936Z,65.63
2023-04-08T07:12:37.936Z,64.53
2023-04-08T07:15:30.032Z,63.43
2023-04-08T07:18:22.383Z,62.42
2023-04-08T07:21:02.920Z,62.04
2023-04-08T07:23:54.947Z,61.83
2023-04-08T07:26:46.945Z,61.48
2023-04-08T07:29:29.270Z,61.60
2023-04-08T07:32:03.846Z,61.73
2023-04-08T07:34:55.938Z,61.77
2023-04-08T07:37:48.020Z,61.78
2023-04-08T07:40:22.580Z,62.06
2023-04-08T07:43:14.528Z,62.77
2023-04-08T07:46:07.149Z,62.78
2023-04-08T07:48:59.117Z,62.33
2023-04-08T07:51:51.521Z,62.13
2023-04-08T07:54:43.561Z,62.29
2023-04-08T07:57:35.620Z,62.20
2023-04-08T08:00:30.249Z,61.71
2023-04-08T08:03:22.366Z,61.58
2023-04-08T08:06:05.832Z,61.23
2023-04-08T08:08:57.848Z,60.79
2023-04-08T08:11:49.881Z,60.79
2023-04-08T08:14:27.490Z,59.86
2023-04-08T08:17:19.414Z,61.79
2023-04-08T08:20:12.618Z,60.79
2023-04-08T08:22:57.738Z,56.84
2023-04-08T08:25:49.930Z,54.72
2023-04-08T08:28:32.851Z,51.71
2023-04-08T08:31:14.990Z,51.72
2023-04-08T08:34:07.080Z,47.94
2023-04-08T08:36:59.051Z,43.64
2023-04-08T08:39:51.006Z,42.34
2023-04-08T08:42:43.207Z,39.72
2023-04-08T08:45:35.781Z,39.85
2023-04-08T08:48:10.776Z,39.09
2023-04-08T08:51:03.167Z,37.75
2023-04-08T08:53:55.164Z,36.64
2023-04-08T08:56:33.955Z,38.01
2023-04-08T08:59:16.176Z,36.81
2023-04-08T09:02:28.084Z,36.03
2023-04-08T09:05:04.883Z,36.06
2023-04-08T09:07:57.253Z,35.80
2023-04-08T09:10:49.203Z,35.91
2023-04-08T09:13:41.579Z,33.63
2023-04-08T09:16:34.162Z,33.49
2023-04-08T09:19:26.631Z,33.77
2023-04-08T09:22:11.580Z,35.84
2023-04-08T09:24:48.727Z,36.92
2023-04-08T09:27:40.874Z,34.21
2023-04-08T09:30:35.078Z,32.72
2023-04-08T09:33:34.092Z,32.74
2023-04-08T09:36:28.145Z,33.21
2023-04-08T09:39:20.577Z,32.78
2023-04-08T09:42:01.034Z,31.72
2023-04-08T09:44:54.695Z,29.86
2023-04-08T09:47:57.133Z,29.63
2023-04-08T09:50:51.949Z,28.42
2023-04-08T09:53:48.967Z,28.04
2023-04-08T09:56:45.695Z,28.67
2023-04-08T09:59:29.088Z,29.29
2023-04-08T10:02:31.441Z,29.94
2023-04-08T10:05:25.714Z,30.23
2023-04-08T10:08:18.243Z,29.92
2023-04-08T10:11:10.660Z,29.86
2023-04-08T10:14:03.315Z,30.41
2023-04-08T10:17:27.446Z,30.70
2023-04-08T10:20:46.122Z,31.28
2023-04-08T10:23:59.740Z,32.16
2023-04-08T10:26:51.830Z,32.70
2023-04-08T10:29:43.914Z,33.00
2023-04-08T10:32:43.306Z,33.84
2023-04-08T10:35:38.003Z,33.38
2023-04-08T10:38:30.012Z,31.24
2023-04-08T10:41:27.781Z,31.77
2023-04-08T10:44:20.781Z,31.29
2023-04-08T10:47:13.518Z,30.29
2023-04-08T10:50:15.991Z,28.91
2023-04-08T10:53:08.652Z,28.72
2023-04-08T10:56:08.583Z,29.26
2023-04-08T10:58:59.242Z,29.79
2023-04-08T11:01:42.015Z,30.53
2023-04-08T11:04:34.369Z,31.13
2023-04-08T11:07:28.235Z,32.02
2023-04-08T11:10:07.370Z,33.40
2023-04-08T11:12:59.713Z,34.40
2023-04-08T11:15:42.031Z,34.92
2023-04-08T11:18:16.683Z,35.30
2023-04-08T11:21:11.744Z,35.94
2023-04-08T11:24:07.138Z,36.53
2023-04-08T11:26:49.825Z,37.05
2023-04-08T11:29:42.023Z,37.56
2023-04-08T11:32:34.418Z,37.98
2023-04-08T11:35:29.435Z,38.15
2023-04-08T11:38:13.211Z,38.68
2023-04-08T11:41:05.206Z,39.08
2023-04-08T11:43:41.014Z,39.51
2023-04-08T11:46:23.662Z,39.59
2023-04-08T11:49:07.984Z,39.80
2023-04-08T11:52:01.339Z,40.19
2023-04-08T11:54:56.250Z,40.60
2023-04-08T11:57:48.267Z,40.88
2023-04-08T12:00:23.867Z,41.03
2023-04-08T12:02:58.751Z,41.20
2023-04-08T12:05:41.339Z,41.42
2023-04-08T12:08:33.765Z,41.78
2023-04-08T12:11:26.107Z,42.23
2023-04-08T12:14:18.148Z,42.15
2023-04-08T12:17:10.136Z,42.61
2023-04-08T12:19:52.283Z,42.96
2023-04-08T12:22:33.274Z,43.36
2023-04-08T12:25:25.424Z,43.63
2023-04-08T12:28:17.394Z,43.82
2023-04-08T12:31:09.476Z,44.07
2023-04-08T12:33:51.786Z,44.37
2023-04-08T12:36:44.798Z,44.57
2023-04-08T12:39:36.831Z,44.52
2023-04-08T12:42:29.039Z,44.78
2023-04-08T12:45:21.062Z,45.07
2023-04-08T12:48:13.089Z,45.34
2023-04-08T12:51:05.390Z,45.73
2023-04-08T12:53:57.759Z,46.21
2023-04-08T12:56:39.188Z,46.30
2023-04-08T12:59:13.861Z,46.67
2023-04-08T13:02:05.978Z,47.30
2023-04-08T13:04:58.156Z,47.67
2023-04-08T13:07:39.082Z,48.02
2023-04-08T13:10:31.167Z,48.44
2023-04-08T13:13:23.221Z,49.04
2023-04-08T13:16:15.396Z,49.16
2023-04-08T13:18:56.772Z,49.42
2023-04-08T13:21:48.883Z,49.66
2023-04-08T13:24:40.827Z,49.97
2023-04-08T13:27:32.814Z,50.55
2023-04-08T13:30:12.403Z,50.75
2023-04-08T13:33:04.460Z,51.19
2023-04-08T13:35:56.749Z,51.39
2023-04-08T13:38:49.692Z,51.88
2023-04-08T13:41:43.697Z,52.03
2023-04-08T13:44:35.906Z,52.06
2023-04-08T13:47:28.168Z,52.24
2023-04-08T13:50:20.431Z,52.28
2023-04-08T13:53:12.462Z,52.49
2023-04-08T13:56:04.518Z,52.59
2023-04-08T13:58:57.573Z,52.56
2023-04-08T14:01:54.048Z,52.81
2023-04-08T14:04:35.163Z,52.89
2023-04-08T14:07:27.167Z,52.83
2023-04-08T14:10:19.172Z,52.97
2023-04-08T14:13:11.104Z,53.12
2023-04-08T14:16:03.078Z,53.25
2023-04-08T14:18:55.664Z,53.32
2023-04-08T14:21:47.691Z,53.46
2023-04-08T14:24:39.671Z,53.63
2023-04-08T14:27:32.226Z,53.70
2023-04-08T14:30:24.473Z,53.54
2023-04-08T14:33:16.464Z,53.51
2023-04-08T14:36:09.158Z,53.77
2023-04-08T14:39:01.856Z,53.83
2023-04-08T14:41:54.026Z,53.96
2023-04-08T14:44:45.927Z,54.01
2023-04-08T14:47:37.951Z,53.99
2023-04-08T14:50:30.828Z,54.03
2023-04-08T14:53:23.340Z,54.11
2023-04-08T14:56:15.444Z,54.20
2023-04-08T14:59:07.386Z,53.99
2023-04-08T15:01:59.448Z,53.60
2023-04-08T15:04:51.483Z,53.84
2023-04-08T15:07:43.869Z,54.00
2023-04-08T15:10:35.964Z,54.18
2023-04-08T15:13:28.012Z,54.07
2023-04-08T15:16:20.142Z,53.91
2023-04-08T15:19:12.159Z,54.13
2023-04-08T15:22:04.138Z,54.13
2023-04-08T15:24:56.366Z,54.24
2023-04-08T15:27:48.752Z,54.20
2023-04-08T15:30:40.905Z,54.40
2023-04-08T15:33:32.966Z,54.49
2023-04-08T15:36:25.014Z,54.33
2023-04-08T15:39:17.059Z,54.53
2023-04-08T15:42:09.077Z,54.48
2023-04-08T15:44:43.402Z,54.57
2023-04-08T15:47:35.564Z,54.68
2023-04-08T15:50:31.360Z,54.77
2023-04-08T15:53:06.669Z,54.68
2023-04-08T15:55:58.918Z,54.68
2023-04-08T15:58:33.398Z,54.90
2023-04-08T16:01:25.432Z,55.06
2023-04-08T16:04:19.338Z,54.92
2023-04-08T16:07:11.469Z,55.11
2023-04-08T16:10:03.487Z,55.13
2023-04-08T16:12:55.798Z,55.20
2023-04-08T16:15:48.736Z,55.34
2023-04-08T16:18:42.813Z,55.47
2023-04-08T16:21:35.163Z,55.46
2023-04-08T16:24:27.394Z,55.51
2023-04-08T16:27:19.500Z,55.48
2023-04-08T16:30:12.982Z,55.48
2023-04-08T16:33:05.031Z,55.60
2023-04-08T16:35:57.612Z,55.74
2023-04-08T16:38:50.036Z,55.77
2023-04-08T16:41:21.808Z,55.73
2023-04-08T16:44:10.361Z,55.82
2023-04-08T16:46:49.534Z,55.80
2023-04-08T16:49:24.142Z,55.86
2023-04-08T16:51:58.974Z,55.89
2023-04-08T16:54:39.586Z,55.82
2023-04-08T16:57:31.572Z,55.97
2023-04-08T17:00:23.780Z,56.16
2023-04-08T17:03:16.227Z,56.29
2023-04-08T17:06:13.558Z,56.20
2023-04-08T17:09:05.905Z,56.28
2023-04-08T17:11:58.069Z,56.33
2023-04-08T17:14:50.419Z,56.42
2023-04-08T17:17:42.440Z,56.57
2023-04-08T17:20:34.466Z,56.73
2023-04-08T17:23:27.052Z,56.68
2023-04-08T17:26:19.042Z,56.66
2023-04-08T17:29:11.354Z,56.86
2023-04-08T17:31:59.934Z,56.92
2023-04-08T17:34:52.050Z,57.09
2023-04-08T17:37:29.152Z,57.06
2023-04-08T17:40:21.889Z,57.36
2023-04-08T17:42:53.754Z,57.31
2023-04-08T17:45:46.818Z,57.37
2023-04-08T17:48:21.666Z,57.60
2023-04-08T17:51:03.967Z,57.62
2023-04-08T17:53:56.170Z,57.88
2023-04-08T17:56:49.565Z,58.04
2023-04-08T17:59:41.678Z,58.05
2023-04-08T18:02:22.756Z,58.08
2023-04-08T18:04:58.527Z,58.25
2023-04-08T18:07:51.819Z,58.37
2023-04-08T18:10:28.814Z,58.52
2023-04-08T18:16:16.446Z,58.64
2023-04-08T18:18:54.099Z,58.82
2023-04-08T18:21:46.070Z,58.91
2023-04-08T18:24:38.275Z,58.93
2023-04-08T18:27:20.427Z,59.05
2023-04-08T18:29:55.746Z,59.20
2023-04-08T18:32:47.713Z,59.24
2023-04-08T18:35:25.329Z,59.27
2023-04-08T18:38:17.272Z,59.30
2023-04-08T18:41:09.520Z,59.30
2023-04-08T18:44:04.045Z,59.52
2023-04-08T18:46:45.691Z,59.57
2023-04-08T18:49:38.651Z,59.65
2023-04-08T18:52:10.701Z,59.54
2023-04-08T18:54:42.823Z,59.79
2023-04-08T18:57:23.547Z,59.79
2023-04-08T18:59:55.465Z,59.87
2023-04-08T19:02:48.070Z,59.99
2023-04-08T19:05:40.362Z,60.14
2023-04-08T19:08:14.369Z,60.20
2023-04-08T19:10:49.007Z,60.31
2023-04-08T19:13:31.110Z,60.29
2023-04-08T19:16:23.449Z,60.38
2023-04-08T19:18:56.134Z,60.48
2023-04-08T19:21:48.838Z,60.51
2023-04-08T19:24:23.647Z,60.51
2023-04-08T19:26:55.681Z,60.62
2023-04-08T19:29:47.644Z,60.80
2023-04-08T19:32:22.419Z,60.89
2023-04-08T19:34:56.909Z,60.82
2023-04-08T19:37:49.189Z,60.79
2023-04-08T19:40:41.422Z,60.92
2023-04-08T19:43:33.673Z,61.02
2023-04-08T19:46:25.921Z,61.19
2023-04-08T19:49:00.729Z,61.12
2023-04-08T19:51:52.905Z,61.20
2023-04-08T19:54:45.067Z,61.26
2023-04-08T19:57:37.135Z,61.43
2023-04-08T20:00:30.414Z,61.42
2023-04-08T20:03:22.903Z,61.51
2023-04-08T20:06:15.209Z,61.58
2023-04-08T20:08:51.249Z,61.52
2023-04-08T20:11:43.667Z,61.69
2023-04-08T20:14:40.373Z,61.75
2023-04-08T20:17:12.395Z,61.86
2023-04-08T20:19:53.258Z,62.03
2023-04-08T20:22:33.906Z,61.97
2023-04-08T20:25:11.880Z,61.93
2023-04-08T20:28:04.299Z,62.07
2023-04-08T20:30:41.482Z,62.08
2023-04-08T20:33:22.207Z,62.02
2023-04-08T20:35:59.494Z,62.14
2023-04-08T20:38:52.401Z,62.05
2023-04-08T20:41:27.125Z,62.11
2023-04-08T20:44:19.062Z,62.40
2023-04-08T20:46:53.832Z,62.30
2023-04-08T20:49:46.415Z,62.45
2023-04-08T20:52:38.608Z,62.49
2023-04-08T20:55:15.896Z,62.40
2023-04-08T20:58:07.901Z,62.56
2023-04-08T21:00:50.380Z,62.74
2023-04-08T21:03:42.582Z,62.87
2023-04-08T21:06:23.539Z,63.00
2023-04-08T21:08:57.571Z,63.19
2023-04-08T21:11:29.478Z,63.39
2023-04-08T21:14:21.470Z,63.41
2023-04-08T21:17:09.754Z,63.68
2023-04-08T21:19:53.099Z,63.81
2023-04-08T21:22:25.470Z,63.89
2023-04-08T21:25:09.755Z,63.97
2023-04-08T21:27:44.551Z,63.95
2023-04-08T21:30:36.987Z,64.25
2023-04-08T21:33:12.240Z,64.22
2023-04-08T21:36:04.709Z,64.40
2023-04-08T21:38:47.974Z,64.35
2023-04-08T21:41:24.234Z,64.44
2023-04-08T21:44:16.458Z,64.71
2023-04-08T21:47:08.398Z,64.83
2023-04-08T21:50:00.661Z,64.85
2023-04-08T21:52:52.653Z,64.95
2023-04-08T21:55:44.743Z,64.95
2023-04-08T21:58:36.900Z,65.25
2023-04-08T22:01:29.011Z,65.30
2023-04-08T22:04:21.792Z,65.47
2023-04-08T22:07:13.720Z,65.52
2023-04-08T22:09:48.639Z,65.51
2023-04-08T22:12:25.738Z,65.62
2023-04-08T22:15:17.826Z,65.62
2023-04-08T22:17:53.080Z,65.62
2023-04-08T22:20:33.947Z,65.78
2023-04-08T22:23:25.943Z,65.77
2023-04-08T22:26:18.134Z,65.78
2023-04-08T22:29:10.083Z,65.82
2023-04-08T22:32:02.110Z,65.76
2023-04-08T22:34:54.112Z,65.80
2023-04-08T22:37:46.067Z,65.83
2023-04-08T22:40:29.557Z,65.82
2023-04-08T22:43:21.813Z,65.81
2023-04-08T22:46:15.385Z,65.92
2023-04-08T22:49:07.448Z,65.89
2023-04-08T22:51:59.361Z,65.55
2023-04-08T22:54:51.339Z,65.54
2023-04-08T22:57:43.290Z,65.69
2023-04-08T23:00:35.355Z,65.84
2023-04-08T23:03:10.049Z,65.85
2023-04-08T23:06:02.008Z,65.84
2023-04-08T23:08:53.984Z,65.85
2023-04-08T23:11:46.071Z,66.02
2023-04-08T23:14:38.091Z,65.93
2023-04-08T23:17:30.190Z,66.09
2023-04-08T23:20:05.205Z,66.19
2023-04-08T23:22:57.008Z,66.20
2023-04-08T23:25:49.123Z,66.25
2023-04-08T23:28:41.073Z,66.42
2023-04-08T23:31:21.951Z,66.40
2023-04-08T23:34:13.936Z,66.51
2023-04-08T23:37:06.028Z,66.60
2023-04-08T23:39:48.064Z,66.64
2023-04-08T23:42:39.964Z,66.68
2023-04-08T23:45:31.930Z,66.72
2023-04-08T23:48:24.092Z,66.81
2023-04-08T23:51:16.210Z,66.80
2023-04-08T23:54:08.195Z,66.65
2023-04-08T23:57:01.055Z,66.78
2023-04-08T23:59:44.292Z,66.63
